createdAt,value
2023-02-11T00:02:59.073Z,102573.31
2023-02-11T00:06:38.802Z,102566.13
2023-02-11T00:09:47.989Z,102572.03
2023-02-11T00:13:00.008Z,102561.25
2023-02-11T00:16:23.447Z,102553.06
2023-02-11T00:19:28.579Z,102555.44
2023-02-11T00:22:51.096Z,102549.03
2023-02-11T00:26:40.993Z,102546.06
2023-02-11T00:29:43.935Z,102553.09
2023-02-11T00:33:08.039Z,102551.97
2023-02-11T00:36:31.437Z,102551.97
2023-02-11T00:39:43.331Z,102540.91
2023-02-11T00:43:07.274Z,102544.31
2023-02-11T00:46:10.811Z,102545.06
2023-02-11T00:49:15.973Z,102541.66
2023-02-11T00:52:39.916Z,102542.00
2023-02-11T00:55:49.409Z,102544.59
2023-02-11T00:58:54.024Z,102539.44
2023-02-11T01:01:56.966Z,102544.78
2023-02-11T01:05:05.579Z,102537.31
2023-02-11T01:08:10.270Z,102527.53
2023-02-11T01:11:19.694Z,102528.06
2023-02-11T01:14:42.747Z,102509.59
2023-02-11T01:17:50.436Z,102507.75
2023-02-11T01:21:16.606Z,102502.31
2023-02-11T01:24:20.983Z,102509.78
2023-02-11T01:27:23.486Z,102497.63
2023-02-11T01:30:31.772Z,102499.00
2023-02-11T01:33:41.217Z,102488.78
2023-02-11T01:37:05.987Z,102489.53
2023-02-11T01:40:20.449Z,102488.78
2023-02-11T01:43:37.815Z,102483.25
2023-02-11T01:47:06.456Z,102480.47
2023-02-11T01:50:13.257Z,102486.19
2023-02-11T01:53:37.332Z,102488.84
2023-02-11T01:57:07.503Z,102482.22
2023-02-11T02:00:36.694Z,102487.72
2023-02-11T02:04:13.480Z,102475.66
2023-02-11T02:07:49.809Z,102473.47
2023-02-11T02:11:01.127Z,102480.50
2023-02-11T02:14:27.051Z,102481.34
2023-02-11T02:18:30.184Z,102472.53
2023-02-11T02:21:43.567Z,102472.91
2023-02-11T02:25:01.187Z,102472.22
2023-02-11T02:28:24.970Z,102478.13
2023-02-11T02:31:50.592Z,102473.87
2023-02-11T02:35:26.520Z,102465.44
2023-02-11T02:38:40.889Z,102474.69
2023-02-11T02:41:53.659Z,102472.19
2023-02-11T02:44:58.467Z,102475.44
2023-02-11T02:48:01.930Z,102470.44
2023-02-11T02:51:42.822Z,102462.34
2023-02-11T02:54:59.806Z,102456.47
2023-02-11T02:58:43.127Z,102455.78
2023-02-11T03:01:57.923Z,102459.53
2023-02-11T03:05:12.233Z,102456.03
2023-02-11T03:08:37.846Z,102455.84
2023-02-11T03:11:47.690Z,102453.81
2023-02-11T03:14:52.795Z,102452.69
2023-02-11T03:18:03.224Z,102445.78
2023-02-11T03:21:09.306Z,102443.87
2023-02-11T03:24:20.840Z,102456.94
2023-02-11T03:27:47.819Z,102443.34
2023-02-11T03:31:20.620Z,102439.25
2023-02-11T03:34:51.445Z,102437.13
2023-02-11T03:38:16.450Z,102440.78
2023-02-11T03:41:23.542Z,102433.97
2023-02-11T03:44:33.414Z,102426.66
2023-02-11T03:48:09.233Z,102427.34
2023-02-11T03:51:33.689Z,102413.44
2023-02-11T03:55:21.071Z,102408.56
2023-02-11T03:58:27.567Z,102402.56
2023-02-11T04:01:35.960Z,102398.44
2023-02-11T04:04:44.115Z,102392.47
2023-02-11T04:07:50.978Z,102385.06
2023-02-11T04:11:19.060Z,102387.00
2023-02-11T04:15:02.025Z,102375.22
2023-02-11T04:18:26.950Z,102380.38
2023-02-11T04:21:49.891Z,102370.25
2023-02-11T04:24:55.464Z,102373.16
2023-02-11T04:28:20.081Z,102371.50
2023-02-11T04:31:26.305Z,102363.28
2023-02-11T04:34:29.809Z,102367.28
2023-02-11T04:37:36.228Z,102363.94
2023-02-11T04:40:46.682Z,102367.81
2023-02-11T04:43:49.964Z,102355.09
2023-02-11T04:46:53.629Z,102361.63
2023-02-11T04:50:00.595Z,102358.81
2023-02-11T04:53:06.310Z,102355.09
2023-02-11T04:56:10.567Z,102360.72
2023-02-11T04:59:15.116Z,102358.22
2023-02-11T05:02:18.940Z,102365.13
2023-02-11T05:05:42.598Z,102365.31
2023-02-11T05:09:12.382Z,102361.50
2023-02-11T05:12:19.002Z,102365.94
2023-02-11T05:15:26.988Z,102371.81
2023-02-11T05:18:30.339Z,102369.94
2023-02-11T05:21:36.311Z,102366.47
2023-02-11T05:24:42.911Z,102368.47
2023-02-11T05:28:07.356Z,102369.94
2023-02-11T05:31:11.542Z,102373.63
2023-02-11T05:34:19.334Z,102366.53
2023-02-11T05:37:24.555Z,102369.94
2023-02-11T05:40:29.267Z,102360.69
2023-02-11T05:43:36.592Z,102368.47
2023-02-11T05:46:47.254Z,102356.50
2023-02-11T05:49:56.410Z,102351.47
2023-02-11T05:52:59.842Z,102355.87
2023-02-11T05:56:11.997Z,102348.06
2023-02-11T05:59:16.780Z,102347.75
2023-02-11T06:02:21.341Z,102345.88
2023-02-11T06:05:30.718Z,102352.88
2023-02-11T06:08:43.052Z,102357.00
2023-02-11T06:12:10.619Z,102363.62
2023-02-11T06:15:35.682Z,102361.97
2023-02-11T06:19:07.736Z,102363.62
2023-02-11T06:22:10.634Z,102375.37
2023-02-11T06:25:33.910Z,102365.59
2023-02-11T06:28:40.024Z,102360.38
2023-02-11T06:31:46.000Z,102349.00
2023-02-11T06:34:52.162Z,102342.69
2023-02-11T06:37:59.822Z,102337.97
2023-02-11T06:41:47.997Z,102328.37
2023-02-11T06:45:20.723Z,102335.25
2023-02-11T06:48:29.347Z,102342.09
2023-02-11T06:51:53.155Z,102348.84
2023-02-11T06:54:56.032Z,102343.53
2023-02-11T06:58:00.273Z,102341.72
2023-02-11T07:01:09.100Z,102329.19
2023-02-11T07:04:16.956Z,102336.41
2023-02-11T07:07:20.570Z,102333.22
2023-02-11T07:10:26.519Z,102328.37
2023-02-11T07:13:29.112Z,102325.88
2023-02-11T07:16:33.346Z,102323.00
2023-02-11T07:19:35.958Z,102325.50
2023-02-11T07:23:12.526Z,102325.56
2023-02-11T07:26:23.293Z,102318.63
2023-02-11T07:29:28.085Z,102322.38
2023-02-11T07:32:36.270Z,102327.50
2023-02-11T07:35:42.543Z,102334.25
2023-02-11T07:39:03.071Z,102330.44
2023-02-11T07:42:06.655Z,102333.94
2023-02-11T07:45:29.846Z,102326.25
2023-02-11T07:49:05.906Z,102325.81
2023-02-11T07:52:11.416Z,102315.06
2023-02-11T07:55:14.750Z,102310.22
2023-02-11T07:58:18.153Z,102303.84
2023-02-11T08:01:28.363Z,102300.09
2023-02-11T08:04:53.958Z,102306.50
2023-02-11T08:07:58.575Z,102301.44
2023-02-11T08:11:15.888Z,102302.69
2023-02-11T08:14:38.635Z,102294.78
2023-02-11T08:18:13.967Z,102296.22
2023-02-11T08:21:37.904Z,102293.31
2023-02-11T08:24:46.937Z,102291.19
2023-02-11T08:27:55.309Z,102302.31
2023-02-11T08:31:05.724Z,102307.66
2023-02-11T08:34:12.016Z,102296.31
2023-02-11T08:37:18.337Z,102301.13
2023-02-11T08:40:21.642Z,102291.34
2023-02-11T08:43:28.090Z,102303.19
2023-02-11T08:46:52.111Z,102294.69
2023-02-11T08:49:56.598Z,102290.00
2023-02-11T08:53:20.257Z,102300.66
2023-02-11T08:56:33.708Z,102292.69
2023-02-11T08:59:40.152Z,102292.72
2023-02-11T09:02:42.741Z,102296.28
2023-02-11T09:05:50.578Z,102289.41
2023-02-11T09:08:56.554Z,102289.00
2023-02-11T09:12:03.608Z,102291.63
2023-02-11T09:15:38.975Z,102290.47
2023-02-11T09:19:23.554Z,102288.66
2023-02-11T09:22:48.666Z,102277.59
2023-02-11T09:26:00.103Z,102274.09
2023-02-11T09:29:05.136Z,102267.78
2023-02-11T09:32:12.476Z,102273.53
2023-02-11T09:35:19.601Z,102257.00
2023-02-11T09:38:44.254Z,102257.25
2023-02-11T09:42:10.838Z,102254.91
2023-02-11T09:45:28.758Z,102255.78
2023-02-11T09:48:55.729Z,102244.00
2023-02-11T09:52:27.272Z,102243.25
2023-02-11T09:55:56.069Z,102247.63
2023-02-11T09:58:59.648Z,102232.28
2023-02-11T10:02:14.540Z,102223.47
2023-02-11T10:06:04.028Z,102231.72
2023-02-11T10:09:19.058Z,102234.22
2023-02-11T10:12:49.847Z,102223.69
2023-02-11T10:16:06.820Z,102223.81
2023-02-11T10:19:51.703Z,102224.72
2023-02-11T10:23:21.553Z,102216.25
2023-02-11T10:26:32.310Z,102214.81
2023-02-11T10:29:43.477Z,102215.53
2023-02-11T10:32:54.738Z,102208.19
2023-02-11T10:36:18.662Z,102204.53
2023-02-11T10:39:28.154Z,102200.13
2023-02-11T10:42:32.663Z,102199.16
2023-02-11T10:46:17.734Z,102193.63
2023-02-11T10:49:39.432Z,102186.69
2023-02-11T10:52:44.358Z,102169.94
2023-02-11T10:56:00.020Z,102170.88
2023-02-11T10:59:14.010Z,102159.19
2023-02-11T11:02:38.824Z,102159.53
2023-02-11T11:06:02.919Z,102152.03
2023-02-11T11:09:21.892Z,102152.84
2023-02-11T11:12:48.988Z,102147.44
2023-02-11T11:16:12.163Z,102148.97
2023-02-11T11:19:21.834Z,102143.25
2023-02-11T11:22:47.461Z,102136.25
2023-02-11T11:26:29.271Z,102125.44
2023-02-11T11:29:51.491Z,102120.25
2023-02-11T11:32:54.738Z,102121.37
2023-02-11T11:36:12.861Z,102107.53
2023-02-11T11:39:19.550Z,102109.72
2023-02-11T11:42:33.915Z,102087.37
2023-02-11T11:45:59.543Z,102094.66
2023-02-11T11:49:31.054Z,102084.69
2023-02-11T11:53:19.348Z,102078.88
2023-02-11T11:56:26.440Z,102071.91
2023-02-11T11:59:30.530Z,102067.16
2023-02-11T12:03:19.301Z,102060.00
2023-02-11T12:06:31.384Z,102055.47
2023-02-11T12:09:51.285Z,102044.03
2023-02-11T12:13:08.021Z,102046.59
2023-02-11T12:16:23.437Z,102031.69
2023-02-11T12:20:03.810Z,102027.56
2023-02-11T12:23:38.728Z,102008.94
2023-02-11T12:26:56.654Z,102006.22
2023-02-11T12:30:15.857Z,101997.44
2023-02-11T12:33:26.974Z,101981.56
2023-02-11T12:37:27.880Z,101984.19
2023-02-11T12:41:07.202Z,101966.34
2023-02-11T12:44:48.480Z,101959.28
2023-02-11T12:47:58.264Z,101965.69
2023-02-11T12:51:05.562Z,101964.16
2023-02-11T12:54:11.068Z,101959.56
2023-02-11T12:57:24.749Z,101952.47
2023-02-11T13:00:47.692Z,101948.37
2023-02-11T13:03:59.179Z,101942.75
2023-02-11T13:07:26.161Z,101944.00
2023-02-11T13:10:38.319Z,101928.16
2023-02-11T13:14:01.823Z,101931.69
2023-02-11T13:17:20.165Z,101938.91
2023-02-11T13:20:49.372Z,101931.28
2023-02-11T13:24:08.497Z,101932.22
2023-02-11T13:27:45.963Z,101911.91
2023-02-11T13:30:57.601Z,101908.06
2023-02-11T13:34:01.306Z,101902.56
2023-02-11T13:37:12.927Z,101905.81
2023-02-11T13:40:41.055Z,101894.34
2023-02-11T13:43:45.589Z,101889.22
2023-02-11T13:47:01.529Z,101902.88
2023-02-11T13:50:08.459Z,101890.31
2023-02-11T13:53:12.357Z,101890.63
2023-02-11T13:56:46.338Z,101897.50
2023-02-11T13:59:51.030Z,101892.59
2023-02-11T14:03:32.278Z,101902.81
2023-02-11T14:07:45.537Z,101897.13
2023-02-11T14:10:53.167Z,101899.69
2023-02-11T14:14:18.178Z,101910.03
2023-02-11T14:17:31.631Z,101891.78
2023-02-11T14:20:39.718Z,101886.16
2023-02-11T14:24:02.335Z,101872.88
2023-02-11T14:27:30.678Z,101867.34
2023-02-11T14:30:42.830Z,101858.44
2023-02-11T14:34:24.520Z,101873.69
2023-02-11T14:38:07.562Z,101883.25
2023-02-11T14:41:51.496Z,101906.28
2023-02-11T14:45:05.241Z,101901.75
2023-02-11T14:48:16.052Z,101897.19
2023-02-11T14:51:27.850Z,101899.53
2023-02-11T14:54:32.253Z,101895.03
2023-02-11T14:57:37.688Z,101894.50
2023-02-11T15:00:53.881Z,101897.38
2023-02-11T15:04:29.220Z,101880.44
2023-02-11T15:07:32.735Z,101881.81
2023-02-11T15:10:45.632Z,101875.47
2023-02-11T15:14:22.681Z,101867.06
2023-02-11T15:17:49.215Z,101867.16
2023-02-11T15:20:53.339Z,101868.88
2023-02-11T15:24:21.987Z,101861.19
2023-02-11T15:27:27.392Z,101855.28
2023-02-11T15:30:35.448Z,101847.50
2023-02-11T15:33:42.624Z,101849.22
2023-02-11T15:36:48.268Z,101850.84
2023-02-11T15:39:52.941Z,101839.25
2023-02-11T15:43:19.607Z,101851.56
2023-02-11T15:46:24.304Z,101844.69
2023-02-11T15:49:33.410Z,101854.63
2023-02-11T15:52:41.764Z,101839.59
2023-02-11T15:55:46.490Z,101839.94
2023-02-11T15:59:00.333Z,101824.00
2023-02-11T16:02:16.905Z,101825.69
2023-02-11T16:05:26.862Z,101838.25
2023-02-11T16:08:30.000Z,101824.03
2023-02-11T16:11:53.766Z,101829.75
2023-02-11T16:16:05.790Z,101827.31
2023-02-11T16:19:35.251Z,101827.56
2023-02-11T16:22:58.511Z,101818.28
2023-02-11T16:26:24.962Z,101816.69
2023-02-11T16:29:55.682Z,101806.75
2023-02-11T16:33:19.244Z,101804.19
2023-02-11T16:36:27.436Z,101808.75
2023-02-11T16:39:58.413Z,101805.31
2023-02-11T16:43:22.996Z,101810.66
2023-02-11T16:46:48.224Z,101815.06
2023-02-11T16:49:51.551Z,101822.94
2023-02-11T16:52:56.918Z,101823.44
2023-02-11T16:56:29.059Z,101824.72
2023-02-11T16:59:39.817Z,101827.09
2023-02-11T17:02:47.176Z,101807.16
2023-02-11T17:06:11.788Z,101807.22
2023-02-11T17:09:35.439Z,101817.00
2023-02-11T17:13:01.774Z,101804.44
2023-02-11T17:16:25.295Z,101825.94
2023-02-11T17:19:31.492Z,101819.06
2023-02-11T17:22:58.229Z,101817.63
2023-02-11T17:26:02.085Z,101831.22
2023-02-11T17:29:12.356Z,101832.19
2023-02-11T17:32:16.547Z,101823.72
2023-02-11T17:35:42.291Z,101826.34
2023-02-11T17:38:51.336Z,101824.72
2023-02-11T17:41:56.671Z,101823.91
2023-02-11T17:45:48.124Z,101824.06
2023-02-11T17:49:30.645Z,101815.53
2023-02-11T17:56:42.651Z,101815.41
2023-02-11T17:59:49.064Z,101824.69
2023-02-11T18:02:52.295Z,101824.03
2023-02-11T18:06:01.194Z,101815.06
2023-02-11T18:09:26.817Z,101824.38
2023-02-11T18:12:50.232Z,101810.31
2023-02-11T18:15:55.589Z,101813.56
2023-02-11T18:19:03.604Z,101798.38
2023-02-11T18:22:11.995Z,101793.31
2023-02-11T18:25:21.635Z,101792.97
2023-02-11T18:28:46.112Z,101794.78
2023-02-11T18:32:14.413Z,101783.19
2023-02-11T18:35:42.422Z,101783.50
2023-02-11T18:38:48.753Z,101788.56
2023-02-11T18:42:34.786Z,101778.47
2023-02-11T18:46:12.966Z,101780.56
2023-02-11T18:50:06.755Z,101793.47
2023-02-11T18:53:20.110Z,101792.97
2023-02-11T18:56:45.306Z,101787.09
2023-02-11T19:00:31.207Z,101788.41
2023-02-11T19:08:28.733Z,101795.75
2023-02-11T19:11:48.856Z,101786.94
2023-02-11T19:15:11.782Z,101795.78
2023-02-11T19:18:19.076Z,101786.09
2023-02-11T19:21:43.997Z,101781.84
2023-02-11T19:24:54.338Z,101790.31
2023-02-11T19:27:57.822Z,101799.78
2023-02-11T19:31:48.872Z,101798.28
2023-02-11T19:34:53.575Z,101796.37
2023-02-11T19:38:04.987Z,101796.56
2023-02-11T19:41:12.289Z,101794.59
2023-02-11T19:44:36.407Z,101790.69
2023-02-11T19:48:12.973Z,101777.25
2023-02-11T19:51:19.250Z,101780.19
2023-02-11T19:54:28.874Z,101779.84
2023-02-11T19:57:55.837Z,101788.53
2023-02-11T20:01:11.212Z,101794.38
2023-02-11T20:04:54.833Z,101792.56
2023-02-11T20:08:01.318Z,101788.34
2023-02-11T20:11:16.318Z,101788.00
2023-02-11T20:14:19.431Z,101787.50
2023-02-11T20:18:04.735Z,101785.00
2023-02-11T20:21:08.799Z,101775.16
2023-02-11T20:24:34.636Z,101778.97
2023-02-11T20:27:52.854Z,101766.00
2023-02-11T20:31:18.684Z,101769.41
2023-02-11T20:34:33.334Z,101771.69
2023-02-11T20:38:05.654Z,101778.06
2023-02-11T20:41:40.122Z,101781.56
2023-02-11T20:45:06.128Z,101766.88
2023-02-11T20:48:29.387Z,101765.59
2023-02-11T20:51:35.123Z,101765.00
2023-02-11T20:55:01.706Z,101773.75
2023-02-11T20:58:06.940Z,101764.94
2023-02-11T21:01:43.417Z,101765.09
2023-02-11T21:05:14.985Z,101764.97
2023-02-11T21:08:38.051Z,101767.19
2023-02-11T21:11:44.028Z,101775.31
2023-02-11T21:15:11.486Z,101770.53
2023-02-11T21:18:37.319Z,101764.63
2023-02-11T21:22:02.067Z,101756.13
2023-02-11T21:25:45.548Z,101762.78
2023-02-11T21:28:52.259Z,101758.41
2023-02-11T21:32:17.779Z,101759.31
2023-02-11T21:35:40.526Z,101775.66
2023-02-11T21:39:07.176Z,101763.47
2023-02-11T21:42:30.194Z,101759.19
2023-02-11T21:45:34.994Z,101751.44
2023-02-11T21:49:11.428Z,101756.44
2023-02-11T21:52:14.364Z,101750.50
2023-02-11T21:55:38.528Z,101753.41
2023-02-11T21:58:47.459Z,101760.62
2023-02-11T22:02:11.174Z,101749.00
2023-02-11T22:05:35.107Z,101748.75
2023-02-11T22:08:39.618Z,101742.41
2023-02-11T22:11:50.234Z,101735.06
2023-02-11T22:15:33.271Z,101747.97
2023-02-11T22:18:38.272Z,101763.38
2023-02-11T22:22:03.038Z,101768.06
2023-02-11T22:25:26.421Z,101764.00
2023-02-11T22:28:50.098Z,101749.91
2023-02-11T22:31:55.489Z,101755.13
2023-02-11T22:35:18.643Z,101776.03
2023-02-11T22:38:43.470Z,101770.78
2023-02-11T22:41:47.742Z,101769.44
2023-02-11T22:45:11.813Z,101782.94
2023-02-11T22:48:17.144Z,101787.09
2023-02-11T22:51:41.112Z,101790.97
2023-02-11T22:54:51.384Z,101771.50
2023-02-11T22:57:57.323Z,101765.97
2023-02-11T23:01:05.711Z,101769.53
2023-02-11T23:04:14.074Z,101765.63
2023-02-11T23:07:20.474Z,101772.37
2023-02-11T23:10:24.037Z,101768.47
2023-02-11T23:13:30.693Z,101779.59
2023-02-11T23:16:35.565Z,101781.25
2023-02-11T23:19:42.409Z,101769.50
2023-02-11T23:23:13.939Z,101776.19
2023-02-11T23:26:26.348Z,101770.94
2023-02-11T23:29:36.149Z,101767.41
2023-02-11T23:32:40.960Z,101757.00
2023-02-11T23:36:05.479Z,101762.22
2023-02-11T23:39:15.942Z,101756.31
2023-02-11T23:42:21.788Z,101753.41
2023-02-11T23:45:52.865Z,101754.75
2023-02-11T23:49:21.018Z,101740.41
2023-02-11T23:52:31.949Z,101748.75
2023-02-11T23:55:39.969Z,101738.78
2023-02-11T23:59:04.795Z,101739.09
